الصفحة الرئيسية
METAR-TAF:

METAR-TAF

مطار :

El Papalon

San Miguel, السلفادور

دائرة عرض: 13-27N, خط طول: 088-07W, ارتفاع: 80 متر

مراقبة الطقس الحالي

تاريخ ووقت الإصدار 1ساعة و 30 دقيقة قبل الساعة 15:50UTC
ريح 2 عقدة من الشرق
درجة الحرارة 32°درجة مئوية
الرطوبة 56%
ضغط 1013 hPa
الرؤية 10 كم أو أكثر
غيوم قليلة على ارتفاع 3000 قدم

METAR: MSSM 041550Z 09002KT 9999 FEW030 32/22 Q1013 A2991

زمن: 11:20 (17:20 UTC)


TAF: مفقودة

أرصاد الطقس والتوقعات من أكثر من 4000 مطار (تقارير الطقس للمطار METAR والتنبؤ بالطقس بالمطارTAF).

المحطات المتاحة هي النقط الصفراء والحمراء على الخريطة.

حرك المؤشر فوق النقطة لمعرفة اسم المحطة.

ثم انقر لمعرفة أرصاد وتوقعات الطقس.

لتغيير الخارطة: اضغط على الأزرار الخضراء مع رمز الصليب الأسود للتكبير. على الزر الأخضر مع شرطة للتصغير، أو على الأسهم الخضراء للخرائط المجاورة.


METAR-TAF: